תחנות METAR סמוכות

 

LLBG - Ben-Gurion(Civ/M, Israel
Distance from station: 'מ 83km
עודכן: 25/05/2019 00:50
בעיקר מעונן
בעיקר מעונן
 רוח מ 'דמ
רוח: 'דמ 13 km/h
טמפרטורה: 24°C
נקודת הטל: 21°C
לחות: 83%
ברומטר: 1012 hPa
עננים: בעיקר מעונן
ראות: 10 km
Cloud details: בעיקר מעונן 366 m
2019/05/24 21:50 LLBG 242150Z 23007KT 9999 BKN012 24/21 Q1012 BECMG 7000 BKN010
LLSD - Sde Dov Airport, Israel
Distance from station: 'מ 75km
עודכן: 24/05/2019 21:50
לא מעודכן
מעונן חלקית
מעונן חלקית
 רוח מ 'מדמ
רוח: 'מדמ 9 km/h
טמפרטורה: 24°C
נקודת הטל: 22°C
לחות: 89%
ברומטר: 1011 hPa
עננים: מעונן חלקית
ראות: 9 km
2019/05/24 18:50 LLSD 241850Z 24005KT 9000 NSC 24/22 Q1011
 
LLHA - Haifa (isr-Afb), Israel
Distance from station: 'צמ 129km
עודכן: 24/05/2019 18:50
לא מעודכן
בהיר
בהיר
 רוח מ 'צצמ
רוח: 'צצמ 11 km/h
טמפרטורה: 33°C
נקודת הטל: 7°C
לחות: 20%
ברומטר: 1006 hPa
סיכום: בהיר
ראות: greater than 10 km
2019/05/24 15:50 LLHA 241550Z 33006KT CAVOK 33/07 Q1006
LLIB - Ben Ya Akov, Israel
Distance from station: 'צמ 183km
עודכן: 24/05/2019 16:50
לא מעודכן
בהיר
בהיר
 רוח מ 'דמ
רוח: 'דמ 17 km/h
טמפרטורה: 40°C
נקודת הטל: 2°C
לחות: 9%
ברומטר: 1008 hPa
סיכום: בהיר
ראות: greater than 10 km
2019/05/24 13:50 LLIB 241350Z 22009KT CAVOK 40/02 Q1008
 
LLOV - Ovda (isr-Afb/Ci, Israel
Distance from station: 'דדמ 246km
עודכן: 31/03/2019 22:50
לא מעודכן
בהיר
בהיר
 רוח מ 'מדמ
רוח: 'מדמ 13 km/h
טמפרטורה: 12°C
נקודת הטל: 0°C
לחות: 44%
ברומטר: 1012 hPa
סיכום: בהיר
ראות: greater than 10 km
2019/03/31 19:50 LLOV 311950Z 24007KT CAVOK 12/00 Q1012
LLET - Elat/J. Hozman(A, Israel
Distance from station: 'דדמ 287km
עודכן: 18/03/2019 17:50
לא מעודכן
בהיר
בהיר
 רוח מ 'צצמ
רוח: 'צצמ 30 km/h
טמפרטורה: 24°C
נקודת הטל: -1°C
לחות: 19%
ברומטר: 1016 hPa
סיכום: בהיר
ראות: greater than 10 km
2019/03/18 15:50 LLET 181550Z 02016KT CAVOK 24/M01 Q1016
 
LCLK - Larnaca/Larnax A, Cyprus
Distance from station: 'צ 321km
עודכן: 25/05/2019 01:00
בהיר
בהיר
 רוח מ 'צמ
רוח: 'צמ 15 km/h
טמפרטורה: 24°C
נקודת הטל: 13°C
לחות: 50%
ברומטר: 1009 hPa
סיכום: בהיר
ראות: greater than 10 km
2019/05/24 22:00 LCLK 242200Z 31008KT CAVOK 24/13 Q1009 NOSIG